Terminal Aerodrome Forecast
Issued by NWS

Home | Current Version | Previous Version | Text Only | Print | Product List | Glossary On
Versions: 1 2 3 4 5 6 7 8 9 10 11 12 13 14 15 16 17 18 19 20 21 22 23 24 25 26 27 28 29
000
FTPA31 PHFO 041100
TAFJRF
TAF
PHJR 041137Z 0412/0512 VRB03KT P6SM VCSH FEW020 SCT080 BKN150
     FM042100 16009KT P6SM VCSH SCT020 BKN040
      TEMPO 0422/0502 4SM SHRA BR BKN020
     FM050400 VRB04KT P6SM FEW020 SCT050=

USA.gov is the U.S. government's official web portal to all federal, state and local government web resources and services.